AFL1496 UUEE-URMG
Flight info
| Callsign | AFL1496 |
|---|---|
| Flight time | 2h 37m |
| Altitude | 35000 |
| Route | N0450F350 TOGMO M56 ABAGI B105 NIMTA/K0841F360 B105 NATIT DCT MOLED N50 LIDUS G242 ZG DCT ITAKA DCT OBBUD DCT AMKOL DCT REMKA |
| Aircraft | A320/M-SDE3FGHIRWY/LB1 |
Departure
| Time | 2026-05-04 13:39 |
|---|---|
| Airport | Sheremetyevo International Airport (UUEE) |
Arrival
| Time | 2026-05-04 16:16 |
|---|---|
| Airport | Akhmat Kadyrov Grozny International Airport (URMG) |
| Time | Latitude | Longitude | Altitude | Speed | Heading |
|---|---|---|---|---|---|
| 2026-05-04 13:12 | 55.98069 | 37.41534 | 639 ft | 0 kts | 76° |
| 2026-05-04 13:17 | 55.98069 | 37.41533 | 639 ft | 0 kts | 76° |
| 2026-05-04 13:23 | 55.98068 | 37.41521 | 639 ft | 4 kts | 76° |
| 2026-05-04 13:23 | 55.98061 | 37.41474 | 643 ft | 4 kts | 79° |
| 2026-05-04 13:23 | 55.98059 | 37.41427 | 639 ft | 4 kts | 100° |
| 2026-05-04 13:24 | 55.98064 | 37.41399 | 644 ft | 0 kts | 152° |
| 2026-05-04 13:26 | 55.98045 | 37.41408 | 639 ft | 4 kts | 166° |
| 2026-05-04 13:27 | 55.98030 | 37.41414 | 639 ft | 0 kts | 166° |
| 2026-05-04 13:28 | 55.97998 | 37.41428 | 641 ft | 11 kts | 166° |
| 2026-05-04 13:28 | 55.97927 | 37.41463 | 639 ft | 10 kts | 164° |
| 2026-05-04 13:28 | 55.97869 | 37.41492 | 639 ft | 8 kts | 165° |
| 2026-05-04 13:29 | 55.97822 | 37.41514 | 640 ft | 6 kts | 166° |
| 2026-05-04 13:29 | 55.97787 | 37.41530 | 639 ft | 4 kts | 166° |
| 2026-05-04 13:29 | 55.97724 | 37.41559 | 639 ft | 13 kts | 165° |
| 2026-05-04 13:29 | 55.97644 | 37.41598 | 639 ft | 11 kts | 165° |
| 2026-05-04 13:30 | 55.97610 | 37.41685 | 641 ft | 8 kts | 77° |
| 2026-05-04 13:30 | 55.97623 | 37.41773 | 646 ft | 1 kts | 75° |
| 2026-05-04 13:30 | 55.97624 | 37.41781 | 639 ft | 0 kts | 75° |
| 2026-05-04 13:32 | 55.97631 | 37.41825 | 640 ft | 15 kts | 75° |
| 2026-05-04 13:32 | 55.97659 | 37.42024 | 642 ft | 14 kts | 75° |
| 2026-05-04 13:33 | 55.97684 | 37.42183 | 642 ft | 12 kts | 74° |
| 2026-05-04 13:33 | 55.97705 | 37.42318 | 645 ft | 10 kts | 74° |
| 2026-05-04 13:33 | 55.97723 | 37.42434 | 645 ft | 9 kts | 75° |
| 2026-05-04 13:33 | 55.97737 | 37.42533 | 642 ft | 8 kts | 76° |
| 2026-05-04 13:34 | 55.97748 | 37.42616 | 645 ft | 6 kts | 76° |
| 2026-05-04 13:34 | 55.97759 | 37.42682 | 639 ft | 5 kts | 74° |
| 2026-05-04 13:34 | 55.97763 | 37.42732 | 647 ft | 3 kts | 91° |
| 2026-05-04 13:34 | 55.97755 | 37.42768 | 639 ft | 7 kts | 121° |
| 2026-05-04 13:35 | 55.97727 | 37.42797 | 639 ft | 0 kts | 165° |
| 2026-05-04 13:36 | 55.97718 | 37.42802 | 641 ft | 8 kts | 165° |
| 2026-05-04 13:37 | 55.97639 | 37.42839 | 647 ft | 12 kts | 165° |
| 2026-05-04 13:37 | 55.97599 | 37.42798 | 639 ft | 0 kts | 253° |
| 2026-05-04 13:38 | 55.97595 | 37.42773 | 639 ft | 10 kts | 254° |
| 2026-05-04 13:38 | 55.97517 | 37.42247 | 644 ft | 80 kts | 255° |
| 2026-05-04 13:38 | 55.97321 | 37.40933 | 641 ft | 137 kts | 255° |
| 2026-05-04 13:38 | 55.97043 | 37.39052 | 736 ft | 174 kts | 255° |
| 2026-05-04 13:39 | 55.96729 | 37.36992 | 1518 ft | 171 kts | 256° |
| 2026-05-04 13:39 | 55.96380 | 37.34935 | 2126 ft | 180 kts | 253° |
| 2026-05-04 13:39 | 55.96013 | 37.32660 | 2370 ft | 202 kts | 256° |
| 2026-05-04 13:39 | 55.95613 | 37.30094 | 2663 ft | 227 kts | 255° |
| 2026-05-04 13:40 | 55.95170 | 37.27246 | 3075 ft | 248 kts | 255° |
| 2026-05-04 13:40 | 55.94702 | 37.24248 | 3866 ft | 252 kts | 256° |
| 2026-05-04 13:40 | 55.94226 | 37.21214 | 4748 ft | 254 kts | 255° |
| 2026-05-04 13:40 | 55.93755 | 37.18203 | 5557 ft | 257 kts | 255° |
| 2026-05-04 13:41 | 55.93254 | 37.15131 | 6412 ft | 259 kts | 252° |
| 2026-05-04 13:41 | 55.92276 | 37.12398 | 7185 ft | 268 kts | 228° |
| 2026-05-04 13:41 | 55.90854 | 37.10201 | 7988 ft | 272 kts | 223° |
| 2026-05-04 13:42 | 55.87850 | 37.05937 | 9549 ft | 280 kts | 222° |
| 2026-05-04 13:42 | 55.86310 | 37.03776 | 10187 ft | 288 kts | 222° |
| 2026-05-04 13:42 | 55.84665 | 37.01446 | 10389 ft | 314 kts | 223° |
| 2026-05-04 13:42 | 55.82926 | 36.98964 | 10539 ft | 337 kts | 222° |
| 2026-05-04 13:43 | 55.81042 | 36.96261 | 10683 ft | 357 kts | 222° |
| 2026-05-04 13:43 | 55.79083 | 36.93434 | 11125 ft | 366 kts | 222° |
| 2026-05-04 13:43 | 55.76961 | 36.90881 | 11718 ft | 375 kts | 208° |
| 2026-05-04 13:43 | 55.74420 | 36.89657 | 12329 ft | 386 kts | 188° |
| 2026-05-04 13:44 | 55.71721 | 36.89962 | 12950 ft | 394 kts | 173° |
| 2026-05-04 13:44 | 55.69011 | 36.90836 | 13587 ft | 397 kts | 172° |
| 2026-05-04 13:44 | 55.66291 | 36.91743 | 14159 ft | 400 kts | 172° |
| 2026-05-04 13:44 | 55.63546 | 36.92682 | 14694 ft | 403 kts | 170° |
| 2026-05-04 13:45 | 55.60943 | 36.94402 | 15211 ft | 410 kts | 153° |
| 2026-05-04 13:45 | 55.58669 | 36.97485 | 15737 ft | 417 kts | 134° |
| 2026-05-04 13:45 | 55.57006 | 37.01717 | 16247 ft | 422 kts | 119° |
| 2026-05-04 13:45 | 55.55636 | 37.06322 | 16749 ft | 425 kts | 118° |
| 2026-05-04 13:46 | 55.54266 | 37.10978 | 17253 ft | 428 kts | 118° |
| 2026-05-04 13:46 | 55.52893 | 37.15650 | 17747 ft | 431 kts | 118° |
| 2026-05-04 13:46 | 55.51499 | 37.20363 | 18216 ft | 434 kts | 118° |
| 2026-05-04 13:46 | 55.50095 | 37.25071 | 18621 ft | 436 kts | 118° |
| 2026-05-04 13:47 | 55.48695 | 37.29740 | 19064 ft | 438 kts | 118° |
| 2026-05-04 13:47 | 55.47260 | 37.34500 | 19498 ft | 440 kts | 118° |
| 2026-05-04 13:47 | 55.45817 | 37.39279 | 19914 ft | 443 kts | 118° |
| 2026-05-04 13:47 | 55.44358 | 37.44085 | 20340 ft | 445 kts | 119° |
| 2026-05-04 13:48 | 55.42898 | 37.48897 | 20737 ft | 447 kts | 119° |
| 2026-05-04 13:48 | 55.41430 | 37.53748 | 21126 ft | 450 kts | 118° |
| 2026-05-04 13:48 | 55.39961 | 37.58600 | 21514 ft | 452 kts | 118° |
| 2026-05-04 13:48 | 55.38481 | 37.63495 | 21870 ft | 455 kts | 118° |
| 2026-05-04 13:49 | 55.36984 | 37.68423 | 22219 ft | 458 kts | 118° |
| 2026-05-04 13:49 | 55.35497 | 37.73291 | 22560 ft | 460 kts | 119° |
| 2026-05-04 13:49 | 55.33975 | 37.78251 | 22933 ft | 462 kts | 119° |
| 2026-05-04 13:49 | 55.32442 | 37.83231 | 23291 ft | 464 kts | 119° |
| 2026-05-04 13:50 | 55.30897 | 37.88222 | 23623 ft | 466 kts | 119° |
| 2026-05-04 13:50 | 55.29346 | 37.93231 | 23907 ft | 468 kts | 119° |
| 2026-05-04 13:50 | 55.27788 | 37.98260 | 24206 ft | 470 kts | 119° |
| 2026-05-04 13:50 | 55.26225 | 38.03319 | 24493 ft | 471 kts | 118° |
| 2026-05-04 13:51 | 55.24659 | 38.08375 | 24791 ft | 472 kts | 118° |
| 2026-05-04 13:51 | 55.23109 | 38.13366 | 25053 ft | 474 kts | 118° |
| 2026-05-04 13:51 | 55.21529 | 38.18449 | 25309 ft | 476 kts | 118° |
| 2026-05-04 13:51 | 55.19943 | 38.23551 | 25595 ft | 477 kts | 118° |
| 2026-05-04 13:52 | 55.16753 | 38.33775 | 26106 ft | 480 kts | 118° |
| 2026-05-04 13:52 | 55.15145 | 38.38898 | 26365 ft | 482 kts | 118° |
| 2026-05-04 13:52 | 55.13528 | 38.44033 | 26665 ft | 482 kts | 118° |
| 2026-05-04 13:53 | 55.11913 | 38.49146 | 27073 ft | 479 kts | 118° |
| 2026-05-04 13:53 | 55.10325 | 38.54160 | 27506 ft | 476 kts | 118° |
| 2026-05-04 13:53 | 55.08725 | 38.59200 | 27915 ft | 474 kts | 118° |
| 2026-05-04 13:54 | 55.05529 | 38.69241 | 28668 ft | 472 kts | 117° |
| 2026-05-04 13:54 | 55.03934 | 38.74241 | 29036 ft | 471 kts | 117° |
| 2026-05-04 13:54 | 55.00750 | 38.84185 | 29796 ft | 469 kts | 117° |
| 2026-05-04 13:55 | 54.99162 | 38.89139 | 30129 ft | 468 kts | 117° |
| 2026-05-04 13:55 | 54.96016 | 38.98935 | 30788 ft | 466 kts | 117° |
| 2026-05-04 13:55 | 54.94433 | 39.03843 | 31101 ft | 465 kts | 117° |
| 2026-05-04 13:56 | 54.92849 | 39.08743 | 31390 ft | 464 kts | 117° |
| 2026-05-04 13:56 | 54.91267 | 39.13627 | 31661 ft | 464 kts | 117° |
| 2026-05-04 13:56 | 54.88094 | 39.23392 | 32218 ft | 464 kts | 116° |
| 2026-05-04 13:57 | 54.86525 | 39.28217 | 32489 ft | 464 kts | 116° |
| 2026-05-04 13:57 | 54.84934 | 39.33092 | 32757 ft | 464 kts | 116° |
| 2026-05-04 13:58 | 54.80161 | 39.47633 | 33640 ft | 462 kts | 116° |
| 2026-05-04 13:58 | 54.76973 | 39.57290 | 34148 ft | 461 kts | 116° |
| 2026-05-04 13:58 | 54.75380 | 39.62102 | 34367 ft | 461 kts | 117° |
| 2026-05-04 13:59 | 54.73800 | 39.66866 | 34573 ft | 462 kts | 117° |
| 2026-05-04 13:59 | 54.72199 | 39.71684 | 34783 ft | 462 kts | 117° |
| 2026-05-04 13:59 | 54.68983 | 39.81347 | 34897 ft | 466 kts | 117° |
| 2026-05-04 14:00 | 54.67364 | 39.86204 | 34889 ft | 465 kts | 117° |
| 2026-05-04 14:00 | 54.62521 | 40.00655 | 34888 ft | 465 kts | 117° |
| 2026-05-04 14:01 | 54.59271 | 40.10309 | 34887 ft | 465 kts | 118° |
| 2026-05-04 14:02 | 54.54379 | 40.24750 | 34893 ft | 465 kts | 118° |
| 2026-05-04 14:02 | 54.51105 | 40.34375 | 34892 ft | 466 kts | 118° |
| 2026-05-04 14:03 | 54.47853 | 40.43926 | 34895 ft | 466 kts | 118° |
| 2026-05-04 14:03 | 54.44569 | 40.53495 | 34894 ft | 466 kts | 118° |
| 2026-05-04 14:04 | 54.39629 | 40.67813 | 34901 ft | 466 kts | 118° |
| 2026-05-04 14:04 | 54.36329 | 40.77359 | 34903 ft | 465 kts | 118° |
| 2026-05-04 14:05 | 54.31346 | 40.91649 | 34900 ft | 465 kts | 119° |
| 2026-05-04 14:06 | 54.28029 | 41.01146 | 34905 ft | 465 kts | 118° |
| 2026-05-04 14:06 | 54.24725 | 41.10590 | 34904 ft | 465 kts | 119° |
| 2026-05-04 14:07 | 54.21384 | 41.20053 | 34897 ft | 465 kts | 119° |
| 2026-05-04 14:07 | 54.18605 | 41.27915 | 34894 ft | 465 kts | 119° |
| 2026-05-04 14:08 | 54.15260 | 41.37355 | 34890 ft | 465 kts | 119° |
| 2026-05-04 14:08 | 54.11358 | 41.48294 | 34892 ft | 465 kts | 120° |
| 2026-05-04 14:09 | 54.06299 | 41.62424 | 34899 ft | 466 kts | 120° |
| 2026-05-04 14:10 | 54.01791 | 41.74954 | 34901 ft | 466 kts | 120° |
| 2026-05-04 14:10 | 53.97841 | 41.85865 | 34903 ft | 466 kts | 120° |
| 2026-05-04 14:11 | 53.94986 | 41.93728 | 34909 ft | 466 kts | 120° |
| 2026-05-04 14:11 | 53.89885 | 42.07713 | 34901 ft | 467 kts | 121° |
| 2026-05-04 14:12 | 53.86454 | 42.17077 | 34898 ft | 468 kts | 121° |
| 2026-05-04 14:13 | 53.81287 | 42.31126 | 34901 ft | 468 kts | 121° |
| 2026-05-04 14:13 | 53.77850 | 42.40408 | 34905 ft | 469 kts | 121° |
| 2026-05-04 14:14 | 53.74382 | 42.49759 | 34902 ft | 470 kts | 121° |
| 2026-05-04 14:14 | 53.68874 | 42.63402 | 34906 ft | 471 kts | 133° |
| 2026-05-04 14:15 | 53.63772 | 42.70269 | 34916 ft | 471 kts | 151° |
| 2026-05-04 14:15 | 53.57860 | 42.74801 | 34915 ft | 470 kts | 158° |
| 2026-05-04 14:16 | 53.48825 | 42.81302 | 34915 ft | 471 kts | 158° |
| 2026-05-04 14:17 | 53.39789 | 42.87805 | 34924 ft | 471 kts | 158° |
| 2026-05-04 14:18 | 53.30785 | 42.94245 | 34925 ft | 471 kts | 158° |
| 2026-05-04 14:19 | 53.18702 | 43.02825 | 34920 ft | 472 kts | 158° |
| 2026-05-04 14:19 | 53.12663 | 43.07099 | 34932 ft | 472 kts | 157° |
| 2026-05-04 14:20 | 53.06703 | 43.11478 | 34933 ft | 471 kts | 156° |
| 2026-05-04 14:20 | 53.00729 | 43.15982 | 34936 ft | 471 kts | 156° |
| 2026-05-04 14:21 | 52.91758 | 43.22665 | 34944 ft | 471 kts | 156° |
| 2026-05-04 14:21 | 52.85810 | 43.27032 | 34945 ft | 471 kts | 156° |
| 2026-05-04 14:22 | 52.79829 | 43.31432 | 34948 ft | 471 kts | 156° |
| 2026-05-04 14:22 | 52.73844 | 43.35826 | 34948 ft | 470 kts | 156° |
| 2026-05-04 14:23 | 52.64890 | 43.42353 | 34949 ft | 469 kts | 157° |
| 2026-05-04 14:24 | 52.58964 | 43.46653 | 34957 ft | 468 kts | 156° |
| 2026-05-04 14:24 | 52.53010 | 43.50979 | 34958 ft | 468 kts | 156° |
| 2026-05-04 14:25 | 52.47053 | 43.55289 | 34957 ft | 468 kts | 157° |
| 2026-05-04 14:25 | 52.38126 | 43.61702 | 34953 ft | 467 kts | 157° |
| 2026-05-04 14:26 | 52.32206 | 43.65947 | 34954 ft | 467 kts | 157° |
| 2026-05-04 14:26 | 52.26254 | 43.70214 | 34959 ft | 467 kts | 157° |
| 2026-05-04 14:27 | 52.20305 | 43.74456 | 34963 ft | 466 kts | 157° |
| 2026-05-04 14:27 | 52.14365 | 43.78678 | 34965 ft | 466 kts | 157° |
| 2026-05-04 14:28 | 52.08468 | 43.82861 | 34975 ft | 465 kts | 157° |
| 2026-05-04 14:28 | 52.02528 | 43.87055 | 34978 ft | 465 kts | 157° |
| 2026-05-04 14:29 | 51.90675 | 43.95404 | 34979 ft | 464 kts | 157° |
| 2026-05-04 14:30 | 51.84753 | 43.99566 | 34975 ft | 464 kts | 158° |
| 2026-05-04 14:31 | 51.75904 | 44.05734 | 34978 ft | 464 kts | 158° |
| 2026-05-04 14:32 | 51.64051 | 44.13954 | 34983 ft | 464 kts | 158° |
| 2026-05-04 14:32 | 51.58159 | 44.18032 | 34984 ft | 463 kts | 158° |
| 2026-05-04 14:33 | 51.52239 | 44.22120 | 34988 ft | 463 kts | 158° |
| 2026-05-04 14:33 | 51.46315 | 44.26208 | 34990 ft | 463 kts | 158° |
| 2026-05-04 14:34 | 51.40399 | 44.30268 | 34988 ft | 462 kts | 158° |
| 2026-05-04 14:34 | 51.37487 | 44.32257 | 35197 ft | 461 kts | 158° |
| 2026-05-04 14:34 | 51.34532 | 44.34270 | 35445 ft | 460 kts | 158° |
| 2026-05-04 14:34 | 51.31592 | 44.36276 | 35688 ft | 459 kts | 158° |
| 2026-05-04 14:35 | 51.28655 | 44.38279 | 35905 ft | 459 kts | 158° |
| 2026-05-04 14:35 | 51.22757 | 44.42286 | 35989 ft | 461 kts | 158° |
| 2026-05-04 14:36 | 51.16854 | 44.46243 | 35985 ft | 460 kts | 162° |
| 2026-05-04 14:36 | 51.10701 | 44.48590 | 35991 ft | 458 kts | 170° |
| 2026-05-04 14:37 | 51.04450 | 44.50554 | 35996 ft | 458 kts | 171° |
| 2026-05-04 14:37 | 50.98199 | 44.52519 | 35999 ft | 458 kts | 171° |
| 2026-05-04 14:38 | 50.91954 | 44.54480 | 36000 ft | 458 kts | 171° |
| 2026-05-04 14:38 | 50.85745 | 44.56439 | 36006 ft | 458 kts | 170° |
| 2026-05-04 14:39 | 50.79496 | 44.58410 | 36002 ft | 458 kts | 170° |
| 2026-05-04 14:39 | 50.73247 | 44.60372 | 36007 ft | 458 kts | 171° |
| 2026-05-04 14:40 | 50.63858 | 44.63292 | 36009 ft | 458 kts | 171° |
| 2026-05-04 14:40 | 50.57605 | 44.65221 | 36013 ft | 458 kts | 171° |
| 2026-05-04 14:41 | 50.51392 | 44.67132 | 36013 ft | 458 kts | 171° |
| 2026-05-04 14:42 | 50.38904 | 44.71007 | 36011 ft | 457 kts | 171° |
| 2026-05-04 14:42 | 50.32665 | 44.72918 | 36013 ft | 457 kts | 171° |
| 2026-05-04 14:43 | 50.26437 | 44.74809 | 36017 ft | 456 kts | 171° |
| 2026-05-04 14:43 | 50.20247 | 44.76704 | 36002 ft | 456 kts | 171° |
| 2026-05-04 14:44 | 50.14020 | 44.78605 | 36009 ft | 456 kts | 171° |
| 2026-05-04 14:44 | 50.07802 | 44.80507 | 36007 ft | 455 kts | 172° |
| 2026-05-04 14:45 | 50.01584 | 44.82387 | 36015 ft | 455 kts | 172° |
| 2026-05-04 14:45 | 49.95417 | 44.84231 | 36015 ft | 454 kts | 172° |
| 2026-05-04 14:46 | 49.89212 | 44.86095 | 36015 ft | 454 kts | 172° |
| 2026-05-04 14:46 | 49.83006 | 44.87970 | 36020 ft | 454 kts | 172° |
| 2026-05-04 14:47 | 49.76802 | 44.89832 | 36018 ft | 454 kts | 172° |
| 2026-05-04 14:47 | 49.70599 | 44.91676 | 36009 ft | 454 kts | 172° |
| 2026-05-04 14:48 | 49.64441 | 44.93510 | 36004 ft | 453 kts | 172° |
| 2026-05-04 14:48 | 49.58250 | 44.95355 | 36016 ft | 452 kts | 172° |
| 2026-05-04 14:49 | 49.52064 | 44.97185 | 36021 ft | 453 kts | 172° |
| 2026-05-04 14:49 | 49.45924 | 44.99007 | 36023 ft | 452 kts | 172° |
| 2026-05-04 14:50 | 49.39746 | 45.00839 | 36024 ft | 453 kts | 172° |
| 2026-05-04 14:50 | 49.33563 | 45.02669 | 36025 ft | 452 kts | 173° |
| 2026-05-04 14:51 | 49.27390 | 45.04480 | 36030 ft | 451 kts | 173° |
| 2026-05-04 14:51 | 49.21277 | 45.06267 | 36030 ft | 450 kts | 173° |
| 2026-05-04 14:52 | 49.15123 | 45.08056 | 36024 ft | 450 kts | 173° |
| 2026-05-04 14:52 | 49.08970 | 45.09851 | 36018 ft | 450 kts | 173° |
| 2026-05-04 14:53 | 49.02827 | 45.11632 | 36026 ft | 449 kts | 173° |
| 2026-05-04 14:53 | 48.96687 | 45.13422 | 36025 ft | 449 kts | 172° |
| 2026-05-04 14:54 | 48.90591 | 45.15186 | 36036 ft | 448 kts | 172° |
| 2026-05-04 14:54 | 48.84464 | 45.16942 | 36032 ft | 448 kts | 172° |
| 2026-05-04 14:55 | 48.78348 | 45.18703 | 36041 ft | 446 kts | 172° |
| 2026-05-04 14:55 | 48.72254 | 45.20453 | 36038 ft | 445 kts | 172° |
| 2026-05-04 14:56 | 48.66217 | 45.22180 | 36031 ft | 444 kts | 172° |
| 2026-05-04 14:56 | 48.60155 | 45.23912 | 36020 ft | 443 kts | 172° |
| 2026-05-04 14:57 | 48.54103 | 45.25640 | 36002 ft | 442 kts | 172° |
| 2026-05-04 14:57 | 48.48054 | 45.27356 | 36019 ft | 442 kts | 172° |
| 2026-05-04 14:58 | 48.42014 | 45.29101 | 36005 ft | 443 kts | 169° |
| 2026-05-04 14:58 | 48.36299 | 45.32463 | 35999 ft | 447 kts | 156° |
| 2026-05-04 14:59 | 48.30708 | 45.36585 | 35990 ft | 447 kts | 157° |
| 2026-05-04 15:00 | 48.22320 | 45.42739 | 36014 ft | 447 kts | 156° |
| 2026-05-04 15:00 | 48.16741 | 45.46818 | 36025 ft | 445 kts | 156° |
| 2026-05-04 15:01 | 48.08438 | 45.52861 | 36015 ft | 443 kts | 156° |
| 2026-05-04 15:01 | 48.02899 | 45.56884 | 36020 ft | 442 kts | 156° |
| 2026-05-04 15:02 | 47.97369 | 45.60897 | 36019 ft | 441 kts | 156° |
| 2026-05-04 15:02 | 47.91887 | 45.64871 | 36018 ft | 441 kts | 156° |
| 2026-05-04 15:03 | 47.86377 | 45.68852 | 36009 ft | 439 kts | 156° |
| 2026-05-04 15:03 | 47.80884 | 45.72811 | 36010 ft | 438 kts | 156° |
| 2026-05-04 15:04 | 47.75405 | 45.76747 | 36019 ft | 437 kts | 156° |
| 2026-05-04 15:04 | 47.69938 | 45.80661 | 36018 ft | 436 kts | 156° |
| 2026-05-04 15:05 | 47.64519 | 45.84538 | 36009 ft | 435 kts | 156° |
| 2026-05-04 15:05 | 47.59070 | 45.88417 | 36008 ft | 434 kts | 156° |
| 2026-05-04 15:06 | 47.53628 | 45.92281 | 36003 ft | 434 kts | 156° |
| 2026-05-04 15:07 | 47.45524 | 45.98048 | 36016 ft | 432 kts | 156° |
| 2026-05-04 15:07 | 47.40115 | 46.01861 | 36010 ft | 430 kts | 156° |
| 2026-05-04 15:08 | 47.34725 | 46.05659 | 36009 ft | 429 kts | 156° |
| 2026-05-04 15:08 | 47.29356 | 46.09464 | 36008 ft | 428 kts | 155° |
| 2026-05-04 15:09 | 47.24027 | 46.13234 | 36001 ft | 428 kts | 156° |
| 2026-05-04 15:09 | 47.18661 | 46.17002 | 36000 ft | 427 kts | 156° |
| 2026-05-04 15:10 | 47.10618 | 46.22649 | 35996 ft | 427 kts | 156° |
| 2026-05-04 15:10 | 47.05564 | 46.27186 | 35994 ft | 429 kts | 141° |
| 2026-05-04 15:11 | 47.03457 | 46.30291 | 35985 ft | 431 kts | 131° |
| 2026-05-04 15:11 | 47.00130 | 46.37557 | 35988 ft | 433 kts | 124° |
| 2026-05-04 15:12 | 46.96900 | 46.45003 | 35986 ft | 433 kts | 125° |
| 2026-05-04 15:12 | 46.93656 | 46.52419 | 35979 ft | 432 kts | 125° |
| 2026-05-04 15:13 | 46.90413 | 46.59818 | 35979 ft | 432 kts | 125° |
| 2026-05-04 15:13 | 46.87190 | 46.67181 | 35975 ft | 432 kts | 125° |
| 2026-05-04 15:14 | 46.83945 | 46.74572 | 35971 ft | 432 kts | 125° |
| 2026-05-04 15:14 | 46.80716 | 46.81895 | 35969 ft | 431 kts | 125° |
| 2026-05-04 15:15 | 46.77468 | 46.89247 | 35959 ft | 431 kts | 125° |
| 2026-05-04 15:15 | 46.74216 | 46.96590 | 35952 ft | 431 kts | 125° |
| 2026-05-04 15:16 | 46.69316 | 47.07587 | 35950 ft | 431 kts | 125° |
| 2026-05-04 15:17 | 46.64505 | 47.18600 | 35948 ft | 432 kts | 124° |
| 2026-05-04 15:17 | 46.59700 | 47.29691 | 35942 ft | 432 kts | 125° |
| 2026-05-04 15:18 | 46.56468 | 47.37050 | 35943 ft | 432 kts | 125° |
| 2026-05-04 15:19 | 46.51635 | 47.48032 | 35937 ft | 432 kts | 125° |
| 2026-05-04 15:19 | 46.46779 | 47.59055 | 35924 ft | 433 kts | 125° |
| 2026-05-04 15:20 | 46.43527 | 47.66409 | 35930 ft | 433 kts | 125° |
| 2026-05-04 15:20 | 46.40259 | 47.73755 | 35931 ft | 434 kts | 126° |
| 2026-05-04 15:21 | 46.37006 | 47.81032 | 35939 ft | 434 kts | 126° |
| 2026-05-04 15:22 | 46.35363 | 47.84705 | 35914 ft | 434 kts | 126° |
| 2026-05-04 15:22 | 46.27931 | 48.02944 | 35910 ft | 440 kts | 111° |
| 2026-05-04 15:23 | 46.26504 | 48.11579 | 35909 ft | 442 kts | 105° |
| 2026-05-04 15:23 | 46.25180 | 48.20251 | 35898 ft | 443 kts | 105° |
| 2026-05-04 15:24 | 46.22509 | 48.37571 | 35901 ft | 444 kts | 106° |
| 2026-05-04 15:25 | 46.21147 | 48.46255 | 35905 ft | 443 kts | 109° |
| 2026-05-04 15:25 | 46.20028 | 48.50354 | 35902 ft | 436 kts | 123° |
| 2026-05-04 15:26 | 46.16070 | 48.56701 | 35900 ft | 424 kts | 149° |
| 2026-05-04 15:26 | 46.13482 | 48.58673 | 35884 ft | 419 kts | 162° |
| 2026-05-04 15:26 | 46.07798 | 48.59923 | 35887 ft | 414 kts | 181° |
| 2026-05-04 15:27 | 45.99163 | 48.59778 | 35893 ft | 417 kts | 181° |
| 2026-05-04 15:28 | 45.90450 | 48.59660 | 35896 ft | 418 kts | 181° |
| 2026-05-04 15:29 | 45.81757 | 48.59536 | 35896 ft | 419 kts | 181° |
| 2026-05-04 15:30 | 45.61346 | 48.59234 | 35899 ft | 419 kts | 181° |
| 2026-05-04 15:31 | 45.52622 | 48.59114 | 35901 ft | 420 kts | 181° |
| 2026-05-04 15:32 | 45.37996 | 48.58911 | 35891 ft | 421 kts | 182° |
| 2026-05-04 15:34 | 45.23406 | 48.58691 | 35909 ft | 421 kts | 182° |
| 2026-05-04 15:34 | 45.14640 | 48.58585 | 35906 ft | 420 kts | 182° |
| 2026-05-04 15:35 | 45.05871 | 48.58460 | 35910 ft | 420 kts | 182° |
| 2026-05-04 15:36 | 44.97148 | 48.58331 | 35910 ft | 420 kts | 182° |
| 2026-05-04 15:36 | 44.91309 | 48.58257 | 35906 ft | 420 kts | 182° |
| 2026-05-04 15:37 | 44.85463 | 48.58187 | 35896 ft | 420 kts | 182° |
| 2026-05-04 15:37 | 44.79627 | 48.58104 | 35899 ft | 420 kts | 182° |
| 2026-05-04 15:38 | 44.73827 | 48.57989 | 35904 ft | 419 kts | 186° |
| 2026-05-04 15:38 | 44.70998 | 48.57170 | 35908 ft | 415 kts | 202° |
| 2026-05-04 15:38 | 44.68453 | 48.55300 | 35902 ft | 413 kts | 215° |
| 2026-05-04 15:39 | 44.63773 | 48.50593 | 35894 ft | 414 kts | 216° |
| 2026-05-04 15:40 | 44.56758 | 48.43482 | 35897 ft | 415 kts | 215° |
| 2026-05-04 15:40 | 44.52096 | 48.38802 | 35890 ft | 415 kts | 216° |
| 2026-05-04 15:41 | 44.47396 | 48.34105 | 35902 ft | 415 kts | 216° |
| 2026-05-04 15:41 | 44.42722 | 48.29438 | 35912 ft | 415 kts | 216° |
| 2026-05-04 15:42 | 44.38034 | 48.24763 | 35919 ft | 414 kts | 216° |
| 2026-05-04 15:42 | 44.33338 | 48.20082 | 35918 ft | 414 kts | 216° |
| 2026-05-04 15:43 | 44.28641 | 48.15408 | 35917 ft | 414 kts | 215° |
| 2026-05-04 15:43 | 44.23943 | 48.10754 | 35916 ft | 414 kts | 215° |
| 2026-05-04 15:44 | 44.19276 | 48.06136 | 35931 ft | 414 kts | 215° |
| 2026-05-04 15:44 | 44.14579 | 48.01494 | 35927 ft | 414 kts | 215° |
| 2026-05-04 15:45 | 44.09872 | 47.96847 | 35929 ft | 414 kts | 215° |
| 2026-05-04 15:45 | 44.05170 | 47.92219 | 35915 ft | 414 kts | 216° |
| 2026-05-04 15:46 | 44.00493 | 47.87628 | 35927 ft | 414 kts | 216° |
| 2026-05-04 15:46 | 43.95782 | 47.83018 | 35920 ft | 414 kts | 215° |
| 2026-05-04 15:47 | 43.91073 | 47.78410 | 35928 ft | 414 kts | 216° |
| 2026-05-04 15:47 | 43.86359 | 47.73799 | 35929 ft | 415 kts | 215° |
| 2026-05-04 15:48 | 43.81669 | 47.69228 | 35929 ft | 415 kts | 215° |
| 2026-05-04 15:48 | 43.74587 | 47.62341 | 35935 ft | 415 kts | 215° |
| 2026-05-04 15:49 | 43.69862 | 47.57764 | 35929 ft | 414 kts | 215° |
| 2026-05-04 15:49 | 43.65173 | 47.53129 | 35933 ft | 415 kts | 220° |
| 2026-05-04 15:50 | 43.61484 | 47.47122 | 35918 ft | 415 kts | 239° |
| 2026-05-04 15:50 | 43.59323 | 47.39734 | 35932 ft | 417 kts | 249° |
| 2026-05-04 15:51 | 43.57469 | 47.32146 | 35926 ft | 418 kts | 249° |
| 2026-05-04 15:51 | 43.56526 | 47.28338 | 35567 ft | 422 kts | 249° |
| 2026-05-04 15:51 | 43.55569 | 47.24494 | 35328 ft | 426 kts | 249° |
| 2026-05-04 15:52 | 43.54602 | 47.20612 | 35085 ft | 427 kts | 249° |
| 2026-05-04 15:52 | 43.53647 | 47.16763 | 34847 ft | 427 kts | 249° |
| 2026-05-04 15:52 | 43.52698 | 47.12936 | 34613 ft | 426 kts | 249° |
| 2026-05-04 15:52 | 43.51742 | 47.09079 | 34378 ft | 426 kts | 249° |
| 2026-05-04 15:53 | 43.50783 | 47.05225 | 34146 ft | 425 kts | 249° |
| 2026-05-04 15:53 | 43.49823 | 47.01380 | 33824 ft | 424 kts | 249° |
| 2026-05-04 15:53 | 43.48857 | 46.97525 | 32852 ft | 428 kts | 249° |
| 2026-05-04 15:53 | 43.47881 | 46.93640 | 31974 ft | 429 kts | 248° |
| 2026-05-04 15:54 | 43.46915 | 46.89792 | 31021 ft | 432 kts | 248° |
| 2026-05-04 15:54 | 43.45933 | 46.85882 | 30127 ft | 433 kts | 249° |
| 2026-05-04 15:54 | 43.44943 | 46.81948 | 28981 ft | 437 kts | 249° |
| 2026-05-04 15:54 | 43.43945 | 46.77990 | 27923 ft | 438 kts | 249° |
| 2026-05-04 15:55 | 43.42946 | 46.74036 | 26866 ft | 439 kts | 249° |
| 2026-05-04 15:55 | 43.41940 | 46.70050 | 25696 ft | 443 kts | 249° |
| 2026-05-04 15:55 | 43.40921 | 46.66030 | 24563 ft | 447 kts | 249° |
| 2026-05-04 15:55 | 43.39894 | 46.61982 | 23453 ft | 450 kts | 249° |
| 2026-05-04 15:56 | 43.38862 | 46.57919 | 22355 ft | 450 kts | 249° |
| 2026-05-04 15:56 | 43.37834 | 46.53885 | 21565 ft | 444 kts | 249° |
| 2026-05-04 15:56 | 43.36829 | 46.49957 | 20757 ft | 440 kts | 249° |
| 2026-05-04 15:56 | 43.35817 | 46.46010 | 19962 ft | 436 kts | 249° |
| 2026-05-04 15:57 | 43.34812 | 46.42091 | 19161 ft | 433 kts | 249° |
| 2026-05-04 15:57 | 43.33811 | 46.38203 | 18390 ft | 431 kts | 249° |
| 2026-05-04 15:57 | 43.32815 | 46.34332 | 17575 ft | 428 kts | 249° |
| 2026-05-04 15:57 | 43.31834 | 46.30497 | 16842 ft | 423 kts | 249° |
| 2026-05-04 15:58 | 43.30862 | 46.26706 | 16133 ft | 419 kts | 249° |
| 2026-05-04 15:58 | 43.29894 | 46.22957 | 15437 ft | 415 kts | 249° |
| 2026-05-04 15:58 | 43.28930 | 46.19239 | 14770 ft | 410 kts | 249° |
| 2026-05-04 15:58 | 43.28187 | 46.15493 | 14117 ft | 407 kts | 258° |
| 2026-05-04 15:59 | 43.27973 | 46.11644 | 13458 ft | 405 kts | 269° |
| 2026-05-04 15:59 | 43.28299 | 46.07811 | 12796 ft | 403 kts | 280° |
| 2026-05-04 15:59 | 43.29135 | 46.04176 | 12295 ft | 397 kts | 290° |
| 2026-05-04 15:59 | 43.30131 | 46.00786 | 12167 ft | 379 kts | 289° |
| 2026-05-04 16:00 | 43.31077 | 45.97493 | 12036 ft | 363 kts | 288° |
| 2026-05-04 16:00 | 43.31974 | 45.94328 | 11908 ft | 348 kts | 288° |
| 2026-05-04 16:00 | 43.32829 | 45.91289 | 11764 ft | 335 kts | 288° |
| 2026-05-04 16:00 | 43.33654 | 45.88360 | 11651 ft | 323 kts | 288° |
| 2026-05-04 16:01 | 43.34451 | 45.85536 | 11533 ft | 312 kts | 288° |
| 2026-05-04 16:01 | 43.35220 | 45.82810 | 11408 ft | 301 kts | 288° |
| 2026-05-04 16:01 | 43.35967 | 45.80160 | 11217 ft | 294 kts | 288° |
| 2026-05-04 16:01 | 43.36706 | 45.77558 | 11094 ft | 291 kts | 289° |
| 2026-05-04 16:02 | 43.37769 | 45.75188 | 10972 ft | 296 kts | 310° |
| 2026-05-04 16:02 | 43.39401 | 45.73451 | 10765 ft | 302 kts | 330° |
| 2026-05-04 16:02 | 43.43546 | 45.72502 | 9978 ft | 300 kts | 356° |
| 2026-05-04 16:03 | 43.45605 | 45.72499 | 9941 ft | 301 kts | 9° |
| 2026-05-04 16:03 | 43.47530 | 45.73577 | 9945 ft | 301 kts | 39° |
| 2026-05-04 16:03 | 43.48825 | 45.75773 | 9946 ft | 297 kts | 69° |
| 2026-05-04 16:03 | 43.49249 | 45.78512 | 9950 ft | 293 kts | 90° |
| 2026-05-04 16:04 | 43.49361 | 45.81315 | 9949 ft | 295 kts | 90° |
| 2026-05-04 16:04 | 43.49574 | 45.86981 | 9341 ft | 295 kts | 90° |
| 2026-05-04 16:04 | 43.49668 | 45.89790 | 8997 ft | 292 kts | 89° |
| 2026-05-04 16:05 | 43.49748 | 45.92574 | 8630 ft | 290 kts | 90° |
| 2026-05-04 16:05 | 43.49816 | 45.95295 | 8283 ft | 287 kts | 90° |
| 2026-05-04 16:05 | 43.50122 | 46.00702 | 7939 ft | 284 kts | 71° |
| 2026-05-04 16:06 | 43.51140 | 46.03021 | 7869 ft | 285 kts | 50° |
| 2026-05-04 16:06 | 43.55551 | 46.06218 | 6936 ft | 279 kts | 353° |
| 2026-05-04 16:07 | 43.57955 | 46.05066 | 6555 ft | 274 kts | 327° |
| 2026-05-04 16:07 | 43.59949 | 45.98325 | 5436 ft | 269 kts | 255° |
| 2026-05-04 16:08 | 43.59155 | 45.96022 | 5045 ft | 266 kts | 231° |
| 2026-05-04 16:08 | 43.54270 | 45.93631 | 3766 ft | 257 kts | 175° |
| 2026-05-04 16:09 | 43.50708 | 45.93882 | 3109 ft | 255 kts | 176° |
| 2026-05-04 16:09 | 43.47439 | 45.94099 | 2607 ft | 223 kts | 176° |
| 2026-05-04 16:10 | 43.44407 | 45.94307 | 2153 ft | 220 kts | 177° |
| 2026-05-04 16:11 | 43.40247 | 45.92771 | 2145 ft | 205 kts | 235° |
| 2026-05-04 16:11 | 43.39686 | 45.91015 | 2147 ft | 200 kts | 262° |
| 2026-05-04 16:12 | 43.39465 | 45.85977 | 2134 ft | 156 kts | 268° |
| 2026-05-04 16:12 | 43.39292 | 45.81650 | 1903 ft | 145 kts | 269° |
| 2026-05-04 16:13 | 43.39183 | 45.78931 | 1561 ft | 143 kts | 269° |
| 2026-05-04 16:13 | 43.39075 | 45.76227 | 1198 ft | 141 kts | 268° |
| 2026-05-04 16:14 | 43.38965 | 45.73548 | 844 ft | 140 kts | 267° |
| 2026-05-04 16:14 | 43.38858 | 45.70892 | 524 ft | 130 kts | 268° |
| 2026-05-04 16:15 | 43.38786 | 45.69226 | 523 ft | 51 kts | 266° |
| 2026-05-04 16:16 | 43.38736 | 45.68522 | 524 ft | 15 kts | 225° |
| 2026-05-04 16:16 | 43.38769 | 45.68802 | 525 ft | 24 kts | 88° |
| 2026-05-04 16:17 | 43.38794 | 45.69394 | 521 ft | 36 kts | 87° |
| 2026-05-04 16:18 | 43.38712 | 45.69993 | 523 ft | 0 kts | 177° |
| 2026-05-04 16:19 | 43.38659 | 45.70034 | 523 ft | 7 kts | 116° |
| 2026-05-04 16:19 | 43.38661 | 45.70148 | 523 ft | 8 kts | 87° |
| 2026-05-04 16:20 | 43.38564 | 45.70229 | 523 ft | 0 kts | 176° |
| 2026-05-04 16:20 | 43.38557 | 45.70230 | 523 ft | 0 kts | 177° |